NKHO2: Little Washita River Nr Ninnek

Data processed at Thu May 23 2019 23:50


All information presented herein is the property of the government of the United States of America and may be revised or deleted at any time without prior notice.
Dissemination of this information without the expressed written consent of the Public Affairs Office, Tulsa District U.S. Army Corps of Engineers is strictly prohibited.
These data are gathered electronically and, as presented, have not undergone any form of quality control. These data are not guaranteed to be valid or correct.
Go to home page.
Go to station list.
Go to home page.

Upstream stations:

Downstream station:
Previous Day
Next Day
Current Day
    
SHEF ID:       NKHO2     Little Washita River East of Nin
STATION TYPE:  
Regulating: Stage =    15.00, Flow =     2623

                STAGE  STAGE(2)  RIV-FLOW  BAT-LOAD
                   ft        ft       cfs      volt
              Ccp-Rev   Ccp-Rev   Ccp-Rev   Ccp-Rev
(US/Central)
05/23 00:00      9.17      ----       429     12.89
05/23 01:00      9.15      ----       424     12.89
05/23 02:00      9.08      ----       407     12.89
05/23 03:00      9.04      ----       397     12.81
05/23 04:00      9.00      ----       387     12.81
05/23 05:00      8.96      ----       378     12.81
05/23 06:00      8.93      ----       371     12.81
05/23 07:00      8.89      ----       361     12.81
05/23 08:00      8.85      ----       350     12.81
05/23 09:00      8.82      ----       342     12.97
05/23 10:00      8.79      ----       333     13.13
05/23 11:00      8.77      ----       328     13.13
05/23 12:00      8.76      ----       325     13.29
05/23 13:00      8.76      ----       325     13.37
05/23 14:00      8.69      ----       307     13.44
05/23 15:00      8.68      ----       305     13.29
05/23 16:00      8.68      ----       305     13.29
05/23 17:00      8.61      ----       287     13.21
05/23 18:00      8.61      ----       287     13.21
05/23 19:00      8.57      ----       278     13.21
05/23 20:00      8.53      ----       268     13.13
05/23 21:00      8.48      ----       257     12.97
05/23 22:00      8.45      ----       250     12.89
05/23 23:00      8.43      ----       246     12.89